createdAt,value
2019-02-07T00:01:08.709Z,21.40
2019-02-07T00:03:36.658Z,18.83
2019-02-07T00:06:04.987Z,18.70
2019-02-07T00:08:32.863Z,18.20
2019-02-07T00:11:00.996Z,17.20
2019-02-07T00:13:29.033Z,17.80
2019-02-07T00:15:57.005Z,17.30
2019-02-07T00:18:25.118Z,19.13
2019-02-07T00:20:53.118Z,16.60
2019-02-07T00:23:21.081Z,16.97
2019-02-07T00:25:49.287Z,18.40
2019-02-07T00:28:17.265Z,17.23
2019-02-07T00:30:45.137Z,17.33
2019-02-07T00:33:13.130Z,17.67
2019-02-07T00:35:41.086Z,16.50
2019-02-07T00:38:10.456Z,17.07
2019-02-07T00:40:38.428Z,18.97
2019-02-07T00:43:06.477Z,19.10
2019-02-07T00:45:34.539Z,18.63
2019-02-07T00:48:02.577Z,19.50
2019-02-07T00:50:31.184Z,18.63
2019-02-07T00:52:59.289Z,20.20
2019-02-07T00:55:27.156Z,18.77
2019-02-07T00:57:55.228Z,19.30
2019-02-07T01:00:23.591Z,20.13
2019-02-07T01:02:51.795Z,20.53
2019-02-07T01:05:19.890Z,20.03
2019-02-07T01:07:48.040Z,19.47
2019-02-07T01:10:18.466Z,19.20
2019-02-07T01:12:46.505Z,19.93
2019-02-07T01:15:14.649Z,19.13
2019-02-07T01:17:42.644Z,19.40
2019-02-07T01:20:11.364Z,19.83
2019-02-07T01:22:39.606Z,20.17
2019-02-07T01:25:08.681Z,18.30
2019-02-07T01:27:36.553Z,19.50
2019-02-07T01:30:05.768Z,18.30
2019-02-07T01:32:33.694Z,18.77
2019-02-07T01:35:01.587Z,19.80
2019-02-07T01:37:29.544Z,17.40
2019-02-07T01:39:57.517Z,17.13
2019-02-07T01:42:25.990Z,17.23
2019-02-07T01:44:53.978Z,16.27
2019-02-07T01:47:22.004Z,16.47
2019-02-07T01:49:49.872Z,15.80
2019-02-07T01:52:18.095Z,17.43
2019-02-07T01:54:45.975Z,16.87
2019-02-07T01:57:13.852Z,17.40
2019-02-07T01:59:42.363Z,17.20
2019-02-07T02:02:10.325Z,16.60
2019-02-07T02:04:38.177Z,18.27
2019-02-07T02:07:06.091Z,17.97
2019-02-07T02:09:34.021Z,18.20
2019-02-07T02:12:01.876Z,19.10
2019-02-07T02:14:29.769Z,18.27
2019-02-07T02:16:57.964Z,17.70
2019-02-07T02:19:25.832Z,18.97
2019-02-07T02:21:53.833Z,18.00
2019-02-07T02:24:21.813Z,18.63
2019-02-07T02:26:49.743Z,18.90
2019-02-07T02:29:17.702Z,19.53
2019-02-07T02:31:45.648Z,17.77
2019-02-07T02:34:13.734Z,18.97
2019-02-07T02:36:41.801Z,19.73
2019-02-07T02:39:09.795Z,21.10
2019-02-07T02:41:37.636Z,19.37
2019-02-07T02:44:05.506Z,21.43
2019-02-07T02:46:33.422Z,19.97
2019-02-07T02:49:01.387Z,20.17
2019-02-07T02:51:29.487Z,20.33
2019-02-07T02:53:59.314Z,22.33
2019-02-07T02:56:27.233Z,22.10
2019-02-07T02:58:55.227Z,21.30
2019-02-07T03:01:29.827Z,23.73
2019-02-07T03:04:15.372Z,23.50
2019-02-07T03:07:02.483Z,23.40
2019-02-07T03:09:48.367Z,23.07
2019-02-07T03:12:37.189Z,22.30
2019-02-07T03:15:23.127Z,22.80
2019-02-07T03:18:09.249Z,25.13
2019-02-07T03:21:02.076Z,24.00
2019-02-07T03:23:52.011Z,22.60
2019-02-07T03:26:37.822Z,22.37
2019-02-07T03:29:33.726Z,22.30
2019-02-07T03:32:23.770Z,22.40
2019-02-07T03:35:03.744Z,25.80
2019-02-07T03:38:05.886Z,23.33
2019-02-07T03:40:58.670Z,22.60
2019-02-07T03:43:44.447Z,23.17
2019-02-07T03:46:40.313Z,23.10
2019-02-07T03:49:25.854Z,23.53
2019-02-07T03:52:09.589Z,21.67
2019-02-07T03:55:02.615Z,22.40
2019-02-07T03:57:46.365Z,21.23
2019-02-07T04:00:35.396Z,21.53
2019-02-07T04:03:19.526Z,22.90
2019-02-07T04:06:05.566Z,22.57
2019-02-07T04:09:10.640Z,21.90
2019-02-07T04:11:56.738Z,22.63
2019-02-07T04:14:43.645Z,21.03
2019-02-07T04:17:28.826Z,21.27
2019-02-07T04:20:14.489Z,21.73
2019-02-07T04:23:01.531Z,21.53
2019-02-07T04:25:55.224Z,20.10
2019-02-07T04:28:36.067Z,23.10
2019-02-07T04:31:12.834Z,21.90
2019-02-07T04:33:58.426Z,21.90
2019-02-07T04:36:44.215Z,21.17
2019-02-07T04:39:29.987Z,22.60
2019-02-07T04:42:20.219Z,22.47
2019-02-07T04:45:25.667Z,22.40
2019-02-07T04:48:05.832Z,22.10
2019-02-07T04:50:55.787Z,23.60
2019-02-07T04:53:54.827Z,20.97
2019-02-07T04:56:57.221Z,23.33
2019-02-07T04:59:40.659Z,21.80
2019-02-07T05:02:26.396Z,23.00
2019-02-07T05:05:25.284Z,23.30
2019-02-07T05:08:10.783Z,23.03
2019-02-07T05:10:53.194Z,22.40
2019-02-07T05:13:45.924Z,23.37
2019-02-07T05:16:44.876Z,23.10
2019-02-07T05:19:19.046Z,22.27
2019-02-07T05:22:08.039Z,23.80
2019-02-07T05:24:45.247Z,22.20
2019-02-07T05:27:38.425Z,21.73
2019-02-07T05:30:29.469Z,23.70
2019-02-07T05:33:22.594Z,23.33
2019-02-07T05:36:01.247Z,22.40
2019-02-07T05:38:51.332Z,21.53
2019-02-07T05:41:41.962Z,21.23
2019-02-07T05:44:28.853Z,22.30
2019-02-07T05:47:10.078Z,22.90
2019-02-07T05:50:00.302Z,22.97
2019-02-07T05:52:57.071Z,22.30
2019-02-07T05:55:42.884Z,22.03
2019-02-07T05:58:39.093Z,21.43
2019-02-07T06:01:25.122Z,22.67
2019-02-07T06:04:11.918Z,21.40
2019-02-07T06:07:05.910Z,21.90
2019-02-07T06:09:59.210Z,22.50
2019-02-07T06:12:48.709Z,22.73
2019-02-07T06:15:35.612Z,20.33
2019-02-07T06:18:22.868Z,21.93
2019-02-07T06:21:12.817Z,21.13
2019-02-07T06:24:05.522Z,20.93
2019-02-07T06:26:56.621Z,20.43
2019-02-07T06:29:47.706Z,21.33
2019-02-07T06:32:24.392Z,20.87
2019-02-07T06:35:10.119Z,20.93
2019-02-07T06:37:56.216Z,21.33
2019-02-07T06:40:49.352Z,20.93
2019-02-07T06:43:24.276Z,19.80
2019-02-07T06:46:11.338Z,19.63
2019-02-07T06:48:51.327Z,21.00
2019-02-07T06:51:50.451Z,21.37
2019-02-07T06:54:43.444Z,18.53
2019-02-07T06:57:33.589Z,20.77
2019-02-07T07:00:20.654Z,20.37
2019-02-07T07:03:10.910Z,20.53
2019-02-07T07:05:48.637Z,18.80
2019-02-07T07:08:36.760Z,20.30
2019-02-07T07:11:29.785Z,19.47
2019-02-07T07:14:29.049Z,20.23
2019-02-07T07:17:25.415Z,21.20
2019-02-07T07:20:01.157Z,21.13
2019-02-07T07:22:57.466Z,20.90
2019-02-07T07:25:44.526Z,20.37
2019-02-07T07:28:31.860Z,21.20
2019-02-07T07:31:17.353Z,21.83
2019-02-07T07:34:10.808Z,21.50
2019-02-07T07:36:57.847Z,22.20
2019-02-07T07:39:36.754Z,20.30
2019-02-07T07:42:23.735Z,19.53
2019-02-07T07:45:16.936Z,21.17
2019-02-07T07:48:02.576Z,19.80
2019-02-07T07:50:49.484Z,19.10
2019-02-07T07:53:55.834Z,19.70
2019-02-07T07:56:48.669Z,20.37
2019-02-07T07:59:35.615Z,20.17
2019-02-07T08:02:21.652Z,18.03
2019-02-07T08:05:21.332Z,18.60
2019-02-07T08:08:07.039Z,19.53
2019-02-07T08:10:53.555Z,18.37
2019-02-07T08:13:41.278Z,18.97
2019-02-07T08:16:27.945Z,18.83
2019-02-07T08:19:13.838Z,18.17
2019-02-07T08:21:48.463Z,20.30
2019-02-07T08:24:34.345Z,19.43
2019-02-07T08:27:20.115Z,19.10
2019-02-07T08:30:09.937Z,21.17
2019-02-07T08:33:12.247Z,18.67
2019-02-07T08:35:59.561Z,19.90
2019-02-07T08:38:56.087Z,19.77
2019-02-07T08:41:46.592Z,17.53
2019-02-07T08:44:32.682Z,18.70
2019-02-07T08:47:25.970Z,19.60
2019-02-07T08:50:24.309Z,19.00
2019-02-07T08:53:18.335Z,19.07
2019-02-07T08:56:08.319Z,18.17
2019-02-07T08:59:07.965Z,19.27
2019-02-07T09:01:55.335Z,18.80
2019-02-07T09:04:48.896Z,19.03
2019-02-07T09:07:42.504Z,17.97
2019-02-07T09:10:23.213Z,17.10
2019-02-07T09:13:18.996Z,18.17
2019-02-07T09:15:55.767Z,17.73
2019-02-07T09:18:44.736Z,17.30
2019-02-07T09:21:35.086Z,17.77
2019-02-07T09:24:22.123Z,18.77
2019-02-07T09:26:55.325Z,16.00
2019-02-07T09:29:45.770Z,18.07
2019-02-07T09:32:38.609Z,17.67
2019-02-07T09:35:21.783Z,19.80
2019-02-07T09:38:07.370Z,17.83
2019-02-07T09:41:12.651Z,18.40
2019-02-07T09:44:02.891Z,18.63
2019-02-07T09:46:56.547Z,20.80
2019-02-07T09:49:43.511Z,18.47
2019-02-07T09:52:30.259Z,19.30
2019-02-07T09:55:16.326Z,18.53
2019-02-07T09:58:12.378Z,16.93
2019-02-07T10:00:58.638Z,16.83
2019-02-07T10:03:36.295Z,17.57
2019-02-07T10:06:47.464Z,18.77
2019-02-07T10:09:36.827Z,18.20
2019-02-07T10:12:33.444Z,17.93
2019-02-07T10:15:19.495Z,17.13
2019-02-07T10:18:06.994Z,18.53
2019-02-07T10:20:52.767Z,18.20
2019-02-07T10:23:48.727Z,16.80
2019-02-07T10:26:41.507Z,17.03
2019-02-07T10:29:28.457Z,16.57
2019-02-07T10:32:31.293Z,16.27
2019-02-07T10:35:22.875Z,16.90
2019-02-07T10:38:10.207Z,17.77
2019-02-07T10:41:06.639Z,16.70
2019-02-07T10:43:52.345Z,18.23
2019-02-07T10:46:51.275Z,19.23
2019-02-07T10:49:38.513Z,18.73
2019-02-07T10:52:27.856Z,16.47
2019-02-07T10:55:21.197Z,18.13
2019-02-07T10:58:10.938Z,18.10
2019-02-07T11:00:56.811Z,19.90
2019-02-07T11:03:59.395Z,17.53
2019-02-07T11:06:50.105Z,17.10
2019-02-07T11:09:37.079Z,17.40
2019-02-07T11:12:24.507Z,17.37
2019-02-07T11:15:20.655Z,17.23
2019-02-07T11:17:59.332Z,17.97
2019-02-07T11:20:45.362Z,18.13
2019-02-07T11:23:33.669Z,17.37
2019-02-07T11:26:19.184Z,17.07
2019-02-07T11:29:14.084Z,16.80
2019-02-07T11:31:55.909Z,17.23
2019-02-07T11:34:46.075Z,16.60
2019-02-07T11:37:34.716Z,16.90
2019-02-07T11:40:29.835Z,17.00
2019-02-07T11:43:28.991Z,18.73
2019-02-07T11:46:14.766Z,18.03
2019-02-07T11:49:06.595Z,17.30
2019-02-07T11:51:51.056Z,18.07
2019-02-07T11:54:29.463Z,18.17
2019-02-07T11:57:19.244Z,18.70
2019-02-07T12:00:06.817Z,17.30
2019-02-07T12:02:52.657Z,17.63
2019-02-07T12:05:39.099Z,17.80
2019-02-07T12:08:41.284Z,18.10
2019-02-07T12:11:36.827Z,16.90
2019-02-07T12:14:28.110Z,17.50
2019-02-07T12:17:18.917Z,16.30
2019-02-07T12:20:04.913Z,16.70
2019-02-07T12:22:55.533Z,17.47
2019-02-07T12:25:44.612Z,16.80
2019-02-07T12:28:37.439Z,17.30
2019-02-07T12:31:23.506Z,17.47
2019-02-07T12:34:10.619Z,17.90
2019-02-07T12:37:05.227Z,17.23
2019-02-07T12:39:51.293Z,16.57
2019-02-07T12:42:38.744Z,16.40
2019-02-07T12:45:35.492Z,16.70
2019-02-07T12:48:35.290Z,16.97
2019-02-07T12:51:28.256Z,15.10
2019-02-07T12:54:18.026Z,16.07
2019-02-07T12:57:04.048Z,15.80
2019-02-07T12:59:57.813Z,15.00
2019-02-07T13:02:56.760Z,16.13
2019-02-07T13:05:47.458Z,15.20
2019-02-07T13:08:34.519Z,14.93
2019-02-07T13:11:21.197Z,14.63
2019-02-07T13:14:20.555Z,13.70
2019-02-07T13:17:19.801Z,14.80
2019-02-07T13:20:01.686Z,15.43
2019-02-07T13:22:52.004Z,15.60
2019-02-07T13:25:38.202Z,15.07
2019-02-07T13:28:25.659Z,15.47
2019-02-07T13:31:25.633Z,15.70
2019-02-07T13:34:16.114Z,15.93
2019-02-07T13:37:18.306Z,14.83
2019-02-07T13:40:14.667Z,15.80
2019-02-07T13:43:01.564Z,17.60
2019-02-07T13:45:46.933Z,15.90
2019-02-07T13:48:46.402Z,14.83
2019-02-07T13:51:45.559Z,15.10
2019-02-07T13:54:30.874Z,15.27
2019-02-07T13:57:16.809Z,16.13
2019-02-07T14:00:19.265Z,14.77
2019-02-07T14:03:05.379Z,14.10
2019-02-07T14:05:55.483Z,12.80
2019-02-07T14:08:41.702Z,12.00
2019-02-07T14:11:34.788Z,13.53
2019-02-07T14:14:25.532Z,13.37
2019-02-07T14:17:05.452Z,11.67
2019-02-07T14:20:02.917Z,11.43
2019-02-07T14:22:40.236Z,13.20
2019-02-07T14:25:31.064Z,12.20
2019-02-07T14:28:27.326Z,12.80
2019-02-07T14:31:17.191Z,11.27
2019-02-07T14:33:57.894Z,12.10
2019-02-07T14:36:45.574Z,11.00
2019-02-07T14:39:31.179Z,11.40
2019-02-07T14:42:24.314Z,11.27
2019-02-07T14:45:04.463Z,10.60
2019-02-07T14:47:32.531Z,10.80
2019-02-07T14:50:01.654Z,9.93
2019-02-07T14:52:29.587Z,12.43
2019-02-07T14:54:57.680Z,13.60
2019-02-07T14:57:25.669Z,13.73
2019-02-07T14:59:53.637Z,11.37
2019-02-07T15:02:21.529Z,11.90
2019-02-07T15:04:49.502Z,11.13
2019-02-07T15:07:17.445Z,11.63
2019-02-07T15:09:45.381Z,10.40
2019-02-07T15:12:16.939Z,10.30
2019-02-07T15:14:44.853Z,10.20
2019-02-07T15:17:13.196Z,10.57
2019-02-07T15:19:41.111Z,11.93
2019-02-07T15:22:09.036Z,11.87
2019-02-07T15:24:37.296Z,10.90
2019-02-07T15:27:05.610Z,11.40
2019-02-07T15:29:33.704Z,11.60
2019-02-07T15:32:01.856Z,10.50
2019-02-07T15:34:30.100Z,11.23
2019-02-07T15:36:58.130Z,11.70
2019-02-07T15:39:28.764Z,10.77
2019-02-07T15:41:57.264Z,11.00
2019-02-07T15:44:25.504Z,11.10
2019-02-07T15:46:53.796Z,10.07
2019-02-07T15:49:21.933Z,10.60
2019-02-07T15:51:50.440Z,10.93
2019-02-07T15:54:18.602Z,11.77
2019-02-07T15:56:46.747Z,12.00
2019-02-07T15:59:31.746Z,10.80
2019-02-07T16:02:18.884Z,11.20
2019-02-07T16:04:47.525Z,10.83
2019-02-07T16:07:15.876Z,10.93
2019-02-07T16:09:44.145Z,12.13
2019-02-07T16:12:12.055Z,11.27
2019-02-07T16:14:41.298Z,10.67
2019-02-07T16:17:26.558Z,11.03
2019-02-07T16:19:54.711Z,11.70
2019-02-07T16:22:22.697Z,11.60
2019-02-07T16:24:50.632Z,11.00
2019-02-07T16:27:18.935Z,10.97
2019-02-07T16:29:47.013Z,10.37
2019-02-07T16:32:15.183Z,10.40
2019-02-07T16:34:43.485Z,11.23
2019-02-07T16:37:11.423Z,11.47
2019-02-07T16:39:39.753Z,11.20
2019-02-07T16:42:08.025Z,12.00
2019-02-07T16:44:36.760Z,11.10
2019-02-07T16:47:04.835Z,11.53
2019-02-07T16:49:32.899Z,11.70
2019-02-07T16:52:01.316Z,11.60
2019-02-07T16:54:29.326Z,10.87
2019-02-07T16:56:57.457Z,11.47
2019-02-07T16:59:25.788Z,10.97
2019-02-07T17:01:53.867Z,11.07
2019-02-07T17:04:22.972Z,11.10
2019-02-07T17:06:51.002Z,14.83
2019-02-07T17:09:25.157Z,12.80
2019-02-07T17:11:53.030Z,11.37
2019-02-07T17:14:21.106Z,12.00
2019-02-07T17:16:49.264Z,10.20
2019-02-07T17:19:17.315Z,10.27
2019-02-07T17:21:45.532Z,9.97
2019-02-07T17:24:13.615Z,8.97
2019-02-07T17:26:41.948Z,10.20
2019-02-07T17:29:12.316Z,10.07
2019-02-07T17:31:40.651Z,10.17
2019-02-07T17:34:10.274Z,11.50
2019-02-07T17:36:40.151Z,11.07
2019-02-07T17:41:49.340Z,10.67
2019-02-07T17:44:22.406Z,11.30
2019-02-07T17:46:50.115Z,10.70
2019-02-07T17:49:18.161Z,9.50
2019-02-07T17:51:46.345Z,10.70
2019-02-07T17:54:18.894Z,10.00
2019-02-07T17:56:44.733Z,11.00
2019-02-07T17:59:12.963Z,11.10
2019-02-07T18:01:41.174Z,10.70
2019-02-07T18:04:09.268Z,10.63
2019-02-07T18:06:37.291Z,10.40
2019-02-07T18:09:07.729Z,11.30
2019-02-07T18:11:38.878Z,11.33
2019-02-07T18:14:07.887Z,11.30
2019-02-07T18:16:36.134Z,11.13
2019-02-07T18:19:04.159Z,10.13
2019-02-07T18:21:34.256Z,12.43
2019-02-07T18:24:02.876Z,11.20
2019-02-07T18:26:31.047Z,11.13
2019-02-07T18:28:59.264Z,11.00
2019-02-07T18:31:27.708Z,11.50
2019-02-07T18:33:56.163Z,13.13
2019-02-07T18:36:24.398Z,12.10
2019-02-07T18:38:57.236Z,9.97
2019-02-07T18:41:25.649Z,10.27
2019-02-07T18:43:55.195Z,9.13
2019-02-07T18:46:23.318Z,10.60
2019-02-07T18:48:53.444Z,9.90
2019-02-07T18:51:21.461Z,10.60
2019-02-07T18:53:52.526Z,9.30
2019-02-07T18:56:20.699Z,10.30
2019-02-07T18:58:49.916Z,9.70
2019-02-07T19:01:17.785Z,8.77
2019-02-07T19:03:46.119Z,8.47
2019-02-07T19:06:14.017Z,8.60
2019-02-07T19:08:42.220Z,8.83
2019-02-07T19:11:14.161Z,8.20
2019-02-07T19:13:43.248Z,8.57
2019-02-07T19:16:15.469Z,8.97
2019-02-07T19:18:43.775Z,8.40
2019-02-07T19:21:14.619Z,7.53
2019-02-07T19:23:42.915Z,6.40
2019-02-07T19:26:13.341Z,7.03
2019-02-07T19:28:43.405Z,6.47
2019-02-07T19:31:11.985Z,5.70
2019-02-07T19:33:42.877Z,6.00
2019-02-07T19:36:34.468Z,6.47
2019-02-07T19:39:03.856Z,5.70
2019-02-07T19:41:33.253Z,5.50
2019-02-07T19:44:01.909Z,5.60
2019-02-07T19:46:30.093Z,5.20
2019-02-07T19:48:58.774Z,6.17
2019-02-07T19:51:27.178Z,6.17
2019-02-07T19:53:55.432Z,5.90
2019-02-07T19:56:27.312Z,5.30
2019-02-07T19:58:56.039Z,5.73
2019-02-07T20:01:24.025Z,5.70
2019-02-07T20:03:51.897Z,5.90
2019-02-07T20:06:20.312Z,5.63
2019-02-07T20:08:48.480Z,5.23
2019-02-07T20:11:16.696Z,5.30
2019-02-07T20:13:44.790Z,5.53
2019-02-07T20:16:12.983Z,6.00
2019-02-07T20:18:41.263Z,4.80
2019-02-07T20:21:09.824Z,5.00
2019-02-07T20:23:39.693Z,4.30
2019-02-07T20:26:07.843Z,5.37
2019-02-07T20:28:35.856Z,5.00
2019-02-07T20:31:04.108Z,4.70
2019-02-07T20:33:31.984Z,4.83
2019-02-07T20:36:07.588Z,4.77
2019-02-07T20:38:35.875Z,4.47
2019-02-07T20:41:03.950Z,4.57
2019-02-07T20:43:32.326Z,4.53
2019-02-07T20:46:03.156Z,4.60
2019-02-07T20:48:31.665Z,3.97
2019-02-07T20:50:59.791Z,3.70
2019-02-07T20:53:28.154Z,4.10
2019-02-07T20:55:56.327Z,3.73
2019-02-07T20:58:24.636Z,3.60
2019-02-07T21:00:53.265Z,3.87
2019-02-07T21:03:22.758Z,3.50
2019-02-07T21:05:54.249Z,4.00
2019-02-07T21:08:22.932Z,4.57
2019-02-07T21:10:51.285Z,3.53
2019-02-07T21:13:20.038Z,3.70
2019-02-07T21:15:48.356Z,4.53
2019-02-07T21:18:17.108Z,4.23
2019-02-07T21:20:45.901Z,3.90
2019-02-07T21:23:13.927Z,4.00
2019-02-07T21:25:46.070Z,4.03
2019-02-07T21:28:14.545Z,4.30
2019-02-07T21:30:42.615Z,4.23
2019-02-07T21:33:10.731Z,4.00
2019-02-07T21:35:38.760Z,4.43
2019-02-07T21:38:06.970Z,4.03
2019-02-07T21:40:35.347Z,4.33
2019-02-07T21:43:03.294Z,3.87
2019-02-07T21:45:31.652Z,4.33
2019-02-07T21:48:00.059Z,3.80
2019-02-07T21:50:28.646Z,5.00
2019-02-07T21:52:56.663Z,4.30
2019-02-07T21:55:25.632Z,4.27
2019-02-07T21:57:53.754Z,3.73
2019-02-07T22:00:41.057Z,3.10
2019-02-07T22:03:09.993Z,3.90
2019-02-07T22:05:38.337Z,3.77
2019-02-07T22:08:06.989Z,4.10
2019-02-07T22:10:35.068Z,2.50
2019-02-07T22:13:03.093Z,3.47
2019-02-07T22:15:31.893Z,4.20
2019-02-07T22:18:00.511Z,3.93
2019-02-07T22:20:28.563Z,3.40
2019-02-07T22:22:56.762Z,3.27
2019-02-07T22:25:25.082Z,3.50
2019-02-07T22:27:53.116Z,3.20
2019-02-07T22:30:31.346Z,3.70
2019-02-07T22:32:59.565Z,3.20
2019-02-07T22:35:27.439Z,3.30
2019-02-07T22:37:55.438Z,3.30
2019-02-07T22:40:32.478Z,3.03
2019-02-07T22:43:00.529Z,2.40
2019-02-07T22:45:28.599Z,2.80
2019-02-07T22:47:56.413Z,2.90
2019-02-07T22:50:25.900Z,2.87
2019-02-07T22:52:56.962Z,2.17
2019-02-07T22:55:23.686Z,2.70
2019-02-07T22:57:51.619Z,2.43
2019-02-07T23:00:41.462Z,3.27
2019-02-07T23:03:11.645Z,2.63
2019-02-07T23:05:39.697Z,2.50
2019-02-07T23:08:07.693Z,2.87
2019-02-07T23:10:35.555Z,2.17
2019-02-07T23:13:05.071Z,2.60
2019-02-07T23:15:33.014Z,2.10
2019-02-07T23:18:01.015Z,2.90
2019-02-07T23:20:28.937Z,2.20
2019-02-07T23:23:04.472Z,2.93
2019-02-07T23:25:26.483Z,2.40
2019-02-07T23:27:54.788Z,2.20
2019-02-07T23:30:22.779Z,2.77
2019-02-07T23:32:50.607Z,1.87
2019-02-07T23:35:21.526Z,2.77
2019-02-07T23:37:49.356Z,3.20
2019-02-07T23:40:17.362Z,2.33
2019-02-07T23:42:45.227Z,2.47
2019-02-07T23:45:15.530Z,2.83
2019-02-07T23:47:43.441Z,3.23
2019-02-07T23:50:11.694Z,3.20
2019-02-07T23:52:39.612Z,2.67
2019-02-07T23:55:07.764Z,2.50
2019-02-07T23:57:36.003Z,2.73
